createdAt,value
2019-01-29T00:01:23.366Z,67.70
2019-01-29T00:03:51.304Z,67.10
2019-01-29T00:06:19.308Z,67.70
2019-01-29T00:08:49.092Z,67.50
2019-01-29T00:11:17.194Z,67.80
2019-01-29T00:13:45.441Z,67.90
2019-01-29T00:16:14.126Z,68.70
2019-01-29T00:18:44.033Z,68.40
2019-01-29T00:21:12.041Z,68.80
2019-01-29T00:23:41.237Z,69.00
2019-01-29T00:26:11.048Z,68.90
2019-01-29T00:28:39.120Z,68.90
2019-01-29T00:31:07.089Z,68.60
2019-01-29T00:33:35.266Z,69.70
2019-01-29T00:36:03.310Z,68.60
2019-01-29T00:38:31.310Z,68.00
2019-01-29T00:40:59.480Z,69.10
2019-01-29T00:43:27.431Z,69.40
2019-01-29T00:45:55.399Z,70.40
2019-01-29T00:48:24.795Z,69.80
2019-01-29T00:50:52.795Z,69.90
2019-01-29T00:53:21.922Z,70.10
2019-01-29T00:55:50.064Z,70.80
2019-01-29T00:58:18.103Z,70.90
2019-01-29T01:00:46.210Z,71.30
2019-01-29T01:03:14.174Z,71.10
2019-01-29T01:05:42.351Z,71.30
2019-01-29T01:08:11.444Z,71.30
2019-01-29T01:10:39.720Z,71.50
2019-01-29T01:13:08.680Z,71.70
2019-01-29T01:15:36.686Z,71.50
2019-01-29T01:18:04.731Z,71.50
2019-01-29T01:20:32.827Z,71.80
2019-01-29T01:23:01.007Z,72.40
2019-01-29T01:25:29.174Z,71.40
2019-01-29T01:27:57.145Z,71.30
2019-01-29T01:30:25.627Z,71.90
2019-01-29T01:32:53.801Z,71.30
2019-01-29T01:35:21.875Z,71.30
2019-01-29T01:37:49.843Z,71.20
2019-01-29T01:40:17.789Z,71.00
2019-01-29T01:42:45.883Z,71.00
2019-01-29T01:45:13.853Z,71.30
2019-01-29T01:47:41.820Z,71.20
2019-01-29T01:50:09.791Z,71.00
2019-01-29T01:52:37.939Z,71.10
2019-01-29T01:55:05.911Z,70.50
2019-01-29T01:57:33.903Z,70.90
2019-01-29T02:00:01.880Z,70.40
2019-01-29T02:02:31.420Z,70.70
2019-01-29T02:04:59.424Z,71.00
2019-01-29T02:07:27.523Z,70.50
2019-01-29T02:09:55.566Z,70.70
2019-01-29T02:12:25.551Z,70.30
2019-01-29T02:14:53.069Z,70.20
2019-01-29T02:17:22.338Z,70.40
2019-01-29T02:19:50.308Z,70.60
2019-01-29T02:22:18.309Z,70.90
2019-01-29T02:24:46.484Z,71.00
2019-01-29T02:27:16.227Z,71.10
2019-01-29T02:29:45.963Z,71.60
2019-01-29T02:32:14.076Z,71.40
2019-01-29T02:34:43.808Z,71.70
2019-01-29T02:37:11.961Z,71.60
2019-01-29T02:39:39.902Z,71.40
2019-01-29T02:42:08.877Z,72.20
2019-01-29T02:44:38.238Z,71.40
2019-01-29T02:47:06.574Z,71.60
2019-01-29T02:49:34.573Z,71.50
2019-01-29T02:52:02.645Z,72.40
2019-01-29T02:54:30.823Z,71.80
2019-01-29T02:56:58.894Z,72.10
2019-01-29T02:59:28.788Z,72.90
2019-01-29T03:01:56.878Z,72.70
2019-01-29T03:04:25.871Z,72.10
2019-01-29T03:06:53.842Z,72.70
2019-01-29T03:09:21.819Z,71.50
2019-01-29T03:11:49.990Z,71.50
2019-01-29T03:14:17.957Z,70.90
2019-01-29T03:16:45.924Z,70.60
2019-01-29T03:19:13.896Z,70.40
2019-01-29T03:21:43.602Z,70.50
2019-01-29T03:24:11.488Z,70.50
2019-01-29T03:26:39.923Z,70.10
2019-01-29T03:29:08.026Z,69.80
2019-01-29T03:31:37.927Z,69.40
2019-01-29T03:34:07.036Z,68.90
2019-01-29T03:36:35.010Z,68.30
2019-01-29T03:39:03.775Z,68.40
2019-01-29T03:41:32.890Z,68.20
2019-01-29T03:44:00.839Z,67.60
2019-01-29T03:46:29.035Z,67.70
2019-01-29T03:48:56.978Z,67.40
2019-01-29T03:51:24.972Z,67.10
2019-01-29T03:53:52.912Z,67.50
2019-01-29T03:56:20.888Z,67.10
2019-01-29T03:58:48.855Z,67.30
2019-01-29T04:01:16.848Z,67.30
2019-01-29T04:03:47.670Z,66.90
2019-01-29T04:06:15.727Z,67.20
2019-01-29T04:08:43.725Z,65.60
2019-01-29T04:11:12.006Z,65.50
2019-01-29T04:13:43.149Z,64.60
2019-01-29T04:16:11.031Z,64.60
2019-01-29T04:18:40.765Z,63.60
2019-01-29T04:21:08.800Z,64.10
2019-01-29T04:23:36.970Z,64.00
2019-01-29T04:26:04.939Z,64.70
2019-01-29T04:28:36.083Z,65.30
2019-01-29T04:31:04.126Z,66.60
2019-01-29T04:33:32.126Z,66.80
2019-01-29T04:36:00.195Z,67.60
2019-01-29T04:38:28.169Z,67.50
2019-01-29T04:40:56.138Z,67.80
2019-01-29T04:43:24.209Z,68.20
2019-01-29T04:45:52.185Z,67.70
2019-01-29T04:48:20.147Z,71.40
2019-01-29T04:50:48.529Z,74.10
2019-01-29T04:53:16.493Z,75.00
2019-01-29T04:55:44.434Z,76.10
2019-01-29T04:58:12.748Z,76.70
2019-01-29T05:00:40.717Z,77.60
2019-01-29T05:03:08.658Z,77.80
2019-01-29T05:05:37.617Z,78.30
2019-01-29T05:08:05.645Z,78.50
2019-01-29T05:10:33.588Z,79.30
2019-01-29T05:13:01.786Z,79.90
2019-01-29T05:15:29.753Z,79.30
2019-01-29T05:17:57.727Z,79.10
2019-01-29T05:20:25.665Z,79.30
2019-01-29T05:22:53.867Z,79.70
2019-01-29T05:25:21.811Z,79.60
2019-01-29T05:27:49.783Z,80.00
2019-01-29T05:30:20.571Z,80.40
2019-01-29T05:32:49.732Z,80.30
2019-01-29T05:35:17.607Z,80.30
2019-01-29T05:37:45.555Z,80.20
2019-01-29T05:40:13.750Z,80.30
2019-01-29T05:42:41.809Z,79.30
2019-01-29T05:45:09.764Z,77.70
2019-01-29T05:47:37.840Z,78.80
2019-01-29T05:50:05.833Z,78.10
2019-01-29T05:52:33.905Z,79.10
2019-01-29T05:55:01.874Z,78.20
2019-01-29T05:57:29.845Z,78.30
2019-01-29T05:59:57.815Z,79.20
2019-01-29T06:02:26.886Z,78.10
2019-01-29T06:04:54.879Z,77.90
2019-01-29T06:07:22.858Z,78.00
2019-01-29T06:09:50.919Z,78.30
2019-01-29T06:12:18.857Z,78.40
2019-01-29T06:14:47.063Z,78.50
2019-01-29T06:17:15.003Z,78.50
2019-01-29T06:19:43.208Z,78.10
2019-01-29T06:22:11.184Z,79.10
2019-01-29T06:24:39.661Z,78.40
2019-01-29T06:27:07.831Z,78.50
2019-01-29T06:29:35.801Z,78.70
2019-01-29T06:32:03.770Z,78.80
2019-01-29T06:34:32.030Z,79.10
2019-01-29T06:37:00.022Z,78.90
2019-01-29T06:39:28.031Z,78.90
2019-01-29T06:41:57.681Z,80.00
2019-01-29T06:44:25.739Z,79.60
2019-01-29T06:46:53.736Z,80.00
2019-01-29T06:49:21.815Z,80.40
2019-01-29T06:51:50.817Z,80.60
2019-01-29T06:54:18.873Z,81.10
2019-01-29T06:56:46.813Z,81.70
2019-01-29T06:59:15.428Z,82.20
2019-01-29T07:01:43.406Z,82.50
2019-01-29T07:04:11.367Z,82.90
2019-01-29T07:06:39.338Z,83.40
2019-01-29T07:09:07.511Z,84.00
2019-01-29T07:11:35.659Z,84.30
2019-01-29T07:14:04.067Z,84.60
2019-01-29T07:16:50.874Z,84.70
2019-01-29T07:19:32.270Z,84.60
2019-01-29T07:22:00.198Z,84.10
2019-01-29T07:24:28.283Z,83.40
2019-01-29T07:26:56.268Z,82.70
2019-01-29T07:29:24.546Z,82.00
2019-01-29T07:31:52.624Z,80.70
2019-01-29T07:34:20.558Z,80.70
2019-01-29T07:36:50.555Z,77.80
2019-01-29T07:39:18.249Z,76.30
2019-01-29T07:41:46.260Z,75.20
2019-01-29T07:44:14.205Z,73.90
2019-01-29T07:46:42.252Z,72.10
2019-01-29T07:49:10.451Z,70.90
2019-01-29T07:51:38.496Z,71.00
2019-01-29T07:54:06.571Z,70.50
2019-01-29T07:56:34.771Z,70.50
2019-01-29T07:59:02.912Z,70.00
2019-01-29T08:01:30.913Z,71.40
2019-01-29T08:03:59.057Z,70.90
2019-01-29T08:06:27.058Z,70.00
2019-01-29T08:08:55.001Z,70.30
2019-01-29T08:11:23.274Z,70.20
2019-01-29T08:13:51.221Z,70.10
2019-01-29T08:16:19.215Z,69.70
2019-01-29T08:18:47.188Z,69.10
2019-01-29T08:21:15.184Z,68.90
2019-01-29T08:23:43.156Z,69.50
2019-01-29T08:26:11.104Z,69.10
2019-01-29T08:28:39.090Z,69.70
2019-01-29T08:31:07.060Z,67.80
2019-01-29T08:33:35.103Z,67.90
2019-01-29T08:36:03.306Z,68.10
2019-01-29T08:38:31.275Z,67.40
2019-01-29T08:40:59.349Z,66.50
2019-01-29T08:43:27.421Z,66.10
2019-01-29T08:45:56.751Z,65.10
2019-01-29T08:48:26.721Z,64.50
2019-01-29T08:50:54.402Z,64.10
2019-01-29T08:53:22.346Z,64.20
2019-01-29T08:55:50.309Z,63.80
2019-01-29T08:58:26.725Z,63.60
2019-01-29T09:00:49.946Z,63.50
2019-01-29T09:03:18.039Z,63.60
2019-01-29T09:05:46.209Z,63.00
2019-01-29T09:08:14.154Z,62.60
2019-01-29T09:10:42.224Z,62.50
2019-01-29T09:13:11.574Z,63.10
2019-01-29T09:15:39.829Z,63.30
2019-01-29T09:18:08.002Z,63.50
2019-01-29T09:20:36.177Z,63.70
2019-01-29T09:23:05.208Z,63.60
2019-01-29T09:25:33.445Z,63.40
2019-01-29T09:28:01.519Z,63.10
2019-01-29T09:30:29.608Z,63.00
2019-01-29T09:32:59.326Z,63.30
2019-01-29T09:35:27.292Z,64.80
2019-01-29T09:37:56.584Z,64.80
2019-01-29T09:40:26.246Z,65.70
2019-01-29T09:42:54.254Z,66.10
2019-01-29T09:45:24.854Z,66.80
2019-01-29T09:47:52.441Z,68.30
2019-01-29T09:50:20.517Z,67.20
2019-01-29T09:52:48.480Z,67.50
2019-01-29T09:55:16.357Z,68.10
2019-01-29T09:57:44.423Z,68.30
2019-01-29T10:00:12.373Z,68.80
2019-01-29T10:02:40.334Z,69.50
2019-01-29T10:05:08.746Z,69.00
2019-01-29T10:07:36.816Z,68.90
2019-01-29T10:10:05.065Z,69.80
2019-01-29T10:12:33.297Z,68.70
2019-01-29T10:15:01.335Z,68.40
2019-01-29T10:17:29.797Z,67.70
2019-01-29T10:20:02.800Z,67.30
2019-01-29T10:22:27.391Z,67.00
2019-01-29T10:24:55.569Z,66.70
2019-01-29T10:27:23.643Z,66.10
2019-01-29T10:29:52.793Z,66.50
2019-01-29T10:32:20.912Z,66.80
2019-01-29T10:34:50.249Z,67.30
2019-01-29T10:37:18.383Z,67.30
2019-01-29T10:39:47.632Z,67.20
2019-01-29T10:42:16.137Z,67.70
2019-01-29T10:44:44.109Z,67.30
2019-01-29T10:47:12.183Z,67.60
2019-01-29T10:49:40.176Z,68.80
2019-01-29T10:52:08.256Z,68.20
2019-01-29T10:54:36.711Z,68.20
2019-01-29T10:57:05.000Z,68.30
2019-01-29T10:59:32.975Z,68.10
2019-01-29T11:02:02.077Z,67.90
2019-01-29T11:04:30.010Z,67.90
2019-01-29T11:06:58.083Z,67.80
2019-01-29T11:09:27.374Z,67.90
2019-01-29T11:11:55.478Z,68.70
2019-01-29T11:14:23.441Z,68.50
2019-01-29T11:16:51.422Z,68.70
2019-01-29T11:19:20.928Z,68.90
2019-01-29T11:21:48.876Z,68.70
2019-01-29T11:24:16.847Z,68.70
2019-01-29T11:26:45.145Z,68.80
2019-01-29T11:29:13.728Z,68.70
2019-01-29T11:31:41.697Z,68.40
2019-01-29T11:34:09.667Z,68.90
2019-01-29T11:36:37.636Z,68.80
2019-01-29T11:39:06.733Z,69.80
2019-01-29T11:41:34.882Z,68.50
2019-01-29T11:44:05.811Z,68.20
2019-01-29T11:46:33.928Z,68.20
2019-01-29T11:49:02.773Z,68.20
2019-01-29T11:51:30.883Z,69.50
2019-01-29T11:53:58.850Z,67.70
2019-01-29T11:56:27.024Z,67.60
2019-01-29T11:58:54.992Z,68.10
2019-01-29T12:01:25.810Z,68.20
2019-01-29T12:03:54.824Z,67.80
2019-01-29T12:06:22.807Z,68.00
2019-01-29T12:08:51.705Z,68.50
2019-01-29T12:11:19.629Z,69.00
2019-01-29T12:13:47.624Z,68.80
2019-01-29T12:16:15.695Z,69.10
2019-01-29T12:18:43.770Z,69.70
2019-01-29T12:21:11.743Z,70.00
2019-01-29T12:23:39.680Z,68.70
2019-01-29T12:26:12.881Z,68.10
2019-01-29T12:28:37.488Z,67.50
2019-01-29T12:31:05.562Z,67.70
2019-01-29T12:33:33.633Z,67.40
2019-01-29T12:36:02.781Z,67.50
2019-01-29T12:38:32.527Z,66.60
2019-01-29T12:41:00.513Z,65.80
2019-01-29T12:43:28.683Z,65.10
2019-01-29T12:45:56.834Z,64.80
2019-01-29T12:48:24.826Z,64.40
2019-01-29T12:51:00.560Z,64.60
2019-01-29T12:53:37.021Z,65.10
2019-01-29T12:56:04.993Z,65.50
2019-01-29T12:58:33.191Z,65.60
2019-01-29T13:01:03.191Z,66.40
2019-01-29T13:03:31.488Z,65.80
2019-01-29T13:06:01.322Z,64.90
2019-01-29T13:08:29.041Z,65.30
2019-01-29T13:10:57.033Z,65.70
2019-01-29T13:13:25.104Z,66.20
2019-01-29T13:15:53.049Z,66.00
2019-01-29T13:18:21.454Z,66.10
2019-01-29T13:20:49.648Z,67.50
2019-01-29T13:23:19.309Z,67.70
2019-01-29T13:25:47.308Z,67.70
2019-01-29T13:28:15.250Z,66.70
2019-01-29T13:30:45.054Z,67.10
2019-01-29T13:33:13.447Z,67.80
2019-01-29T13:35:41.440Z,68.70
2019-01-29T13:38:09.382Z,69.40
2019-01-29T13:40:37.376Z,70.40
2019-01-29T13:43:05.345Z,70.60
2019-01-29T13:45:33.419Z,71.20
2019-01-29T13:48:01.397Z,71.50
2019-01-29T13:50:29.465Z,71.80
2019-01-29T13:52:57.610Z,72.00
2019-01-29T13:55:25.706Z,71.50
2019-01-29T13:57:54.162Z,71.70
2019-01-29T14:00:24.195Z,71.50
2019-01-29T14:02:51.867Z,71.10
2019-01-29T14:05:19.835Z,70.40
2019-01-29T14:07:47.804Z,70.60
2019-01-29T14:10:15.858Z,71.10
2019-01-29T14:12:43.844Z,71.30
2019-01-29T14:15:13.435Z,71.80
2019-01-29T14:17:41.582Z,71.80
2019-01-29T14:20:10.625Z,71.40
2019-01-29T14:22:38.670Z,72.20
2019-01-29T14:25:06.665Z,72.30
2019-01-29T14:27:34.734Z,72.90
2019-01-29T14:30:04.403Z,72.80
2019-01-29T14:32:32.881Z,73.40
2019-01-29T14:35:00.869Z,73.80
2019-01-29T14:37:28.968Z,73.70
2019-01-29T14:39:58.037Z,73.60
2019-01-29T14:42:26.236Z,74.70
2019-01-29T14:44:54.191Z,73.60
2019-01-29T14:47:22.259Z,73.80
2019-01-29T14:49:50.452Z,73.90
2019-01-29T14:52:18.523Z,74.70
2019-01-29T14:54:46.914Z,74.70
2019-01-29T14:57:15.385Z,75.70
2019-01-29T14:59:43.333Z,75.00
2019-01-29T15:02:11.324Z,74.70
2019-01-29T15:04:39.600Z,75.10
2019-01-29T15:07:07.572Z,75.70
2019-01-29T15:09:35.540Z,76.70
2019-01-29T15:12:03.611Z,75.80
2019-01-29T15:14:31.583Z,76.00
2019-01-29T15:17:09.314Z,75.30
2019-01-29T15:19:40.334Z,74.90
2019-01-29T15:22:07.263Z,75.10
2019-01-29T15:24:35.438Z,75.50
2019-01-29T15:27:05.889Z,75.60
2019-01-29T15:29:33.324Z,75.30
2019-01-29T15:32:01.270Z,75.30
2019-01-29T15:34:29.571Z,75.70
2019-01-29T15:36:58.130Z,76.30
2019-01-29T15:39:26.224Z,76.30
2019-01-29T15:41:54.297Z,76.00
2019-01-29T15:44:22.266Z,76.10
2019-01-29T15:46:50.212Z,77.30
2019-01-29T15:49:18.205Z,76.00
2019-01-29T15:51:46.790Z,76.30
2019-01-29T15:54:14.834Z,76.50
2019-01-29T15:56:42.830Z,76.60
2019-01-29T15:59:10.770Z,76.90
2019-01-29T16:01:38.874Z,77.40
2019-01-29T16:04:07.578Z,77.00
2019-01-29T16:06:35.604Z,78.70
2019-01-29T16:09:05.575Z,78.00
2019-01-29T16:11:33.800Z,78.40
2019-01-29T16:14:01.791Z,78.30
2019-01-29T16:16:29.870Z,78.10
2019-01-29T16:18:58.137Z,78.50
2019-01-29T16:21:28.016Z,78.30
2019-01-29T16:23:55.997Z,78.60
2019-01-29T16:26:24.277Z,79.30
2019-01-29T16:28:52.577Z,79.50
2019-01-29T16:31:21.159Z,79.40
2019-01-29T16:33:49.336Z,79.10
2019-01-29T16:36:17.405Z,79.00
2019-01-29T16:38:45.376Z,79.00
2019-01-29T16:41:13.863Z,78.70
2019-01-29T16:43:41.928Z,77.90
2019-01-29T16:46:10.922Z,78.00
2019-01-29T16:48:38.996Z,77.10
2019-01-29T16:51:06.942Z,77.60
2019-01-29T16:53:35.019Z,77.60
2019-01-29T16:56:03.312Z,78.10
2019-01-29T16:58:31.267Z,78.50
2019-01-29T17:00:59.559Z,79.20
2019-01-29T17:03:28.780Z,78.50
2019-01-29T17:05:56.827Z,79.00
2019-01-29T17:08:24.797Z,78.70
2019-01-29T17:10:53.962Z,79.40
2019-01-29T17:13:23.543Z,79.50
2019-01-29T17:15:51.673Z,79.60
2019-01-29T17:18:19.623Z,79.90
2019-01-29T17:20:48.893Z,79.70
2019-01-29T17:23:18.007Z,79.70
2019-01-29T17:25:46.215Z,80.10
2019-01-29T17:28:14.162Z,79.90
2019-01-29T17:30:42.159Z,80.50
2019-01-29T17:33:10.636Z,80.90
2019-01-29T17:35:38.606Z,81.30
2019-01-29T17:38:06.574Z,81.50
2019-01-29T17:40:34.519Z,82.10
2019-01-29T17:43:02.515Z,82.10
2019-01-29T17:45:30.798Z,82.30
2019-01-29T17:47:58.861Z,82.70
2019-01-29T17:50:26.752Z,83.30
2019-01-29T17:52:54.773Z,82.90
2019-01-29T17:55:22.872Z,83.30
2019-01-29T17:57:51.103Z,83.70
2019-01-29T18:00:19.427Z,84.00
2019-01-29T18:02:47.396Z,84.20
2019-01-29T18:05:15.674Z,84.20
2019-01-29T18:07:43.614Z,84.30
2019-01-29T18:10:11.602Z,85.10
2019-01-29T18:12:39.681Z,85.20
2019-01-29T18:15:07.753Z,85.50
2019-01-29T18:17:35.727Z,85.90
2019-01-29T18:20:04.102Z,86.70
2019-01-29T18:22:32.057Z,88.10
2019-01-29T18:25:00.319Z,88.60
2019-01-29T18:27:28.727Z,89.00
2019-01-29T18:29:58.436Z,89.00
2019-01-29T18:32:26.510Z,89.20
2019-01-29T18:34:55.597Z,89.30
2019-01-29T18:37:23.577Z,90.00
2019-01-29T18:39:51.544Z,88.90
2019-01-29T18:42:20.493Z,89.10
2019-01-29T18:44:48.918Z,89.30
2019-01-29T18:47:16.936Z,89.80
2019-01-29T18:49:44.958Z,89.20
2019-01-29T18:52:14.361Z,89.30
2019-01-29T18:54:42.418Z,89.20
2019-01-29T18:57:10.608Z,90.00
2019-01-29T18:59:38.678Z,89.50
2019-01-29T19:02:06.752Z,89.30
2019-01-29T19:04:36.435Z,89.20
2019-01-29T19:07:04.533Z,89.40
2019-01-29T19:09:32.710Z,89.40
2019-01-29T19:12:00.859Z,89.10
2019-01-29T19:14:28.955Z,89.80
2019-01-29T19:16:57.869Z,88.90
2019-01-29T19:19:26.017Z,89.60
2019-01-29T19:21:54.091Z,88.70
2019-01-29T19:24:25.308Z,88.50
2019-01-29T19:26:53.684Z,88.40
2019-01-29T19:29:21.689Z,88.40
2019-01-29T19:31:49.758Z,88.30
2019-01-29T19:34:17.829Z,88.50
2019-01-29T19:36:46.002Z,88.50
2019-01-29T19:39:13.973Z,88.10
2019-01-29T19:41:41.941Z,87.90
2019-01-29T19:44:10.928Z,87.80
2019-01-29T19:46:38.981Z,87.90
2019-01-29T19:49:06.946Z,88.30
2019-01-29T19:51:35.048Z,88.30
2019-01-29T19:54:03.294Z,88.50
2019-01-29T19:56:32.592Z,89.70
2019-01-29T19:59:00.696Z,88.90
2019-01-29T20:01:30.329Z,89.30
2019-01-29T20:03:58.456Z,89.20
2019-01-29T20:06:26.960Z,89.20
2019-01-29T20:08:55.008Z,89.50
2019-01-29T20:11:23.310Z,89.60
2019-01-29T20:13:51.284Z,89.40
2019-01-29T20:16:19.452Z,89.60
2019-01-29T20:18:50.496Z,89.50
2019-01-29T20:21:18.564Z,90.10
2019-01-29T20:23:46.864Z,90.50
2019-01-29T20:26:15.018Z,90.50
2019-01-29T20:28:43.090Z,90.50
2019-01-29T20:31:11.370Z,90.80
2019-01-29T20:33:39.435Z,90.50
2019-01-29T20:36:07.509Z,90.50
2019-01-29T20:38:35.586Z,90.50
2019-01-29T20:41:05.176Z,90.50
2019-01-29T20:43:33.263Z,90.50
2019-01-29T20:46:01.527Z,90.10
2019-01-29T20:48:31.301Z,90.10
2019-01-29T20:50:59.405Z,90.10
2019-01-29T20:53:27.700Z,90.20
2019-01-29T20:55:55.771Z,90.20
2019-01-29T20:58:23.740Z,90.40
2019-01-29T21:00:53.730Z,90.50
2019-01-29T21:03:21.818Z,90.90
2019-01-29T21:05:50.765Z,90.30
2019-01-29T21:08:18.993Z,90.30
2019-01-29T21:10:47.042Z,90.30
2019-01-29T21:13:15.140Z,90.30
2019-01-29T21:15:43.313Z,90.40
2019-01-29T21:18:11.276Z,90.30
2019-01-29T21:20:39.456Z,90.40
2019-01-29T21:23:07.812Z,90.40
2019-01-29T21:25:37.749Z,90.50
2019-01-29T21:28:07.029Z,90.50
2019-01-29T21:30:35.306Z,90.40
2019-01-29T21:33:03.299Z,90.40
2019-01-29T21:35:31.245Z,90.10
2019-01-29T21:37:59.342Z,89.60
2019-01-29T21:40:27.285Z,88.60
2019-01-29T21:42:56.849Z,88.60
2019-01-29T21:45:24.989Z,88.30
2019-01-29T21:47:52.956Z,86.90
2019-01-29T21:50:20.932Z,86.10
2019-01-29T21:52:48.897Z,85.50
2019-01-29T21:55:17.070Z,86.00
2019-01-29T21:57:45.042Z,87.30
2019-01-29T22:00:14.989Z,86.60
2019-01-29T22:02:42.803Z,86.40
2019-01-29T22:05:10.789Z,86.00
2019-01-29T22:07:38.975Z,85.70
2019-01-29T22:10:06.957Z,85.30
2019-01-29T22:12:35.010Z,84.90
2019-01-29T22:15:03.083Z,84.20
2019-01-29T22:17:31.137Z,83.60
2019-01-29T22:20:01.014Z,82.40
2019-01-29T22:22:29.216Z,82.00
2019-01-29T22:24:57.331Z,81.40
2019-01-29T22:27:25.521Z,81.20
2019-01-29T22:29:53.557Z,79.10
2019-01-29T22:32:23.420Z,78.70
2019-01-29T22:34:51.442Z,78.10
2019-01-29T22:37:19.720Z,77.70
2019-01-29T22:39:48.174Z,77.40
2019-01-29T22:42:25.388Z,76.60
2019-01-29T22:44:53.532Z,76.70
2019-01-29T22:47:21.732Z,76.30
2019-01-29T22:49:53.082Z,76.70
2019-01-29T22:52:21.132Z,76.70
2019-01-29T22:54:49.331Z,77.00
2019-01-29T22:57:17.473Z,76.00
2019-01-29T22:59:45.449Z,75.70
2019-01-29T23:02:13.542Z,74.80
2019-01-29T23:04:41.717Z,74.30
2019-01-29T23:07:09.782Z,74.30
2019-01-29T23:09:39.688Z,74.60
2019-01-29T23:12:07.368Z,74.50
2019-01-29T23:14:35.316Z,74.50
2019-01-29T23:17:03.406Z,74.60
2019-01-29T23:19:31.379Z,74.60
2019-01-29T23:21:59.316Z,75.80
2019-01-29T23:24:27.529Z,77.60
2019-01-29T23:26:55.796Z,76.80
2019-01-29T23:29:23.869Z,76.50
2019-01-29T23:31:51.842Z,76.10
2019-01-29T23:34:19.911Z,77.10
2019-01-29T23:36:47.981Z,77.60
2019-01-29T23:39:17.742Z,77.60
2019-01-29T23:41:45.763Z,77.60
2019-01-29T23:44:14.142Z,77.50
2019-01-29T23:46:42.190Z,77.40
2019-01-29T23:49:10.159Z,76.80
2019-01-29T23:51:38.357Z,76.60
2019-01-29T23:54:06.429Z,76.20
2019-01-29T23:56:36.254Z,76.40
2019-01-29T23:59:05.303Z,76.10
